createdAt,value
2018-07-15T00:01:03.985Z,70.76
2018-07-15T00:02:13.576Z,70.9
2018-07-15T00:03:23.638Z,70.67
2018-07-15T00:04:33.732Z,70.96
2018-07-15T00:05:43.527Z,70.96
2018-07-15T00:06:53.312Z,70.99
2018-07-15T00:08:03.428Z,70.32
2018-07-15T00:09:13.499Z,70.57
2018-07-15T00:10:23.314Z,70.51
2018-07-15T00:11:33.113Z,70.48
2018-07-15T00:12:42.911Z,70.57
2018-07-15T00:13:53.034Z,70.57
2018-07-15T00:15:03.106Z,70.67
2018-07-15T00:16:12.912Z,70.67
2018-07-15T00:17:22.694Z,70.86
2018-07-15T00:18:32.507Z,70.67
2018-07-15T00:19:42.627Z,71.05
2018-07-15T00:20:52.413Z,70.67
2018-07-15T00:22:01.926Z,70.19
2018-07-15T00:23:11.999Z,70.29
2018-07-15T00:24:22.069Z,70.67
2018-07-15T00:25:31.915Z,70.86
2018-07-15T00:26:41.960Z,70.96
2018-07-15T00:27:52.040Z,70.76
2018-07-15T00:29:02.123Z,70.86
2018-07-15T00:30:12.200Z,71.25
2018-07-15T00:31:22.033Z,72.68
2018-07-15T00:32:31.565Z,72.27
2018-07-15T00:33:41.364Z,72.45
2018-07-15T00:34:50.904Z,72.45
2018-07-15T00:36:00.975Z,72.07
2018-07-15T00:37:10.544Z,71.78
2018-07-15T00:38:20.616Z,72.55
2018-07-15T00:39:30.701Z,72.36
2018-07-15T00:40:40.792Z,72.27
2018-07-15T00:41:50.865Z,72.17
2018-07-15T00:43:00.994Z,72.07
2018-07-15T00:44:10.518Z,72.45
2018-07-15T00:45:20.579Z,72.74
2018-07-15T00:46:30.111Z,72.84
2018-07-15T00:47:39.906Z,72.27
2018-07-15T00:48:50.034Z,72.74
2018-07-15T00:49:59.582Z,72.84
2018-07-15T00:51:09.105Z,71.98
2018-07-15T00:52:18.915Z,72.94
2018-07-15T00:53:29.002Z,72.55
2018-07-15T00:54:38.835Z,72.84
2018-07-15T00:55:48.910Z,72.55
2018-07-15T00:56:58.995Z,72.55
2018-07-15T00:58:09.072Z,72.61
2018-07-15T00:59:19.144Z,73.47
2018-07-15T01:00:28.991Z,73.57
2018-07-15T01:01:38.815Z,73.47
2018-07-15T01:02:48.604Z,73.95
2018-07-15T01:03:58.671Z,74.33
2018-07-15T01:05:08.745Z,74.33
2018-07-15T01:06:18.601Z,74.15
2018-07-15T01:07:28.675Z,74.43
2018-07-15T01:08:38.752Z,74.05
2018-07-15T01:09:48.830Z,73.76
2018-07-15T01:10:58.900Z,74.43
2018-07-15T01:12:08.764Z,74.43
2018-07-15T01:13:18.563Z,75.01
2018-07-15T01:14:28.629Z,75.01
2018-07-15T01:15:38.690Z,75.87
2018-07-15T01:16:48.745Z,76.54
2018-07-15T01:17:58.853Z,75.77
2018-07-15T01:19:08.935Z,76.44
2018-07-15T01:20:18.745Z,76.92
2018-07-15T01:21:28.524Z,76.92
2018-07-15T01:22:37.780Z,76.44
2018-07-15T01:23:47.884Z,76.73
2018-07-15T01:24:57.676Z,77.21
2018-07-15T01:26:07.202Z,76.92
2018-07-15T01:27:17.283Z,77.02
2018-07-15T01:28:27.095Z,76.82
2018-07-15T01:29:36.962Z,76.44
2018-07-15T01:30:46.480Z,75.71
2018-07-15T01:31:56.286Z,75.77
2018-07-15T01:33:06.358Z,76
2018-07-15T01:34:15.879Z,76.1
2018-07-15T01:35:25.988Z,76.19
2018-07-15T01:36:36.081Z,75.9
2018-07-15T01:37:45.875Z,75.71
2018-07-15T01:38:55.686Z,76.39
2018-07-15T01:40:05.474Z,75.71
2018-07-15T01:41:15.117Z,75.81
2018-07-15T01:42:25.206Z,76.39
2018-07-15T01:43:35.285Z,76.39
2018-07-15T01:44:45.089Z,76.77
2018-07-15T01:45:54.900Z,76.86
2018-07-15T01:47:05.026Z,77.25
2018-07-15T01:48:15.110Z,76.48
2018-07-15T01:49:24.919Z,76.57
2018-07-15T01:50:34.738Z,76.48
2018-07-15T01:51:44.821Z,76.67
2018-07-15T01:52:54.933Z,76.29
2018-07-15T01:54:04.721Z,76.1
2018-07-15T01:55:14.846Z,75.9
2018-07-15T01:56:24.654Z,75.62
2018-07-15T01:57:34.265Z,75.81
2018-07-15T01:58:44.118Z,75.71
2018-07-15T01:59:54.180Z,75.62
2018-07-15T02:01:04.236Z,75.81
2018-07-15T02:02:13.761Z,75.81
2018-07-15T02:03:23.286Z,76.1
2018-07-15T02:04:33.160Z,75.81
2018-07-15T02:05:43.239Z,76.1
2018-07-15T02:06:53.299Z,75.81
2018-07-15T02:08:02.833Z,76.39
2018-07-15T02:09:12.908Z,75.62
2018-07-15T02:10:22.761Z,76.57
2018-07-15T02:11:32.818Z,76.29
2018-07-15T02:12:42.871Z,76.29
2018-07-15T02:13:52.944Z,77.15
2018-07-15T02:15:03.009Z,76.96
2018-07-15T02:16:12.845Z,77.06
2018-07-15T02:17:22.929Z,76.48
2018-07-15T02:18:33.013Z,77.44
2018-07-15T02:19:43.087Z,77.11
2018-07-15T02:20:52.895Z,77.02
2018-07-15T02:22:02.467Z,78.17
2018-07-15T02:23:11.996Z,76.92
2018-07-15T02:24:21.808Z,77.21
2018-07-15T02:25:31.893Z,77.5
2018-07-15T02:26:41.696Z,77.69
2018-07-15T02:27:51.823Z,77.97
2018-07-15T02:29:01.889Z,77.97
2018-07-15T02:30:11.972Z,78.17
2018-07-15T02:31:20.978Z,77.97
2018-07-15T02:32:31.064Z,78.27
2018-07-15T02:33:41.182Z,78.36
2018-07-15T02:34:51.247Z,78.93
2018-07-15T02:36:01.331Z,79.13
2018-07-15T02:37:10.881Z,78.55
2018-07-15T02:38:20.161Z,78.64
2018-07-15T02:39:30.291Z,78.74
2018-07-15T02:40:40.115Z,78.84
2018-07-15T02:41:49.926Z,78.55
2018-07-15T02:42:59.993Z,78.55
2018-07-15T02:44:09.824Z,78.84
2018-07-15T02:45:19.407Z,78.84
2018-07-15T02:46:29.210Z,78.93
2018-07-15T02:47:39.278Z,79.41
2018-07-15T02:48:48.808Z,79.7
2018-07-15T02:49:58.891Z,79.32
2018-07-15T02:51:08.830Z,79.51
2018-07-15T02:52:18.636Z,78.36
2018-07-15T02:53:28.176Z,78.55
2018-07-15T02:54:37.976Z,78.84
2018-07-15T02:55:48.065Z,79.13
2018-07-15T02:56:58.178Z,78.93
2018-07-15T02:58:07.707Z,78.45
2018-07-15T02:59:17.766Z,79.6
2018-07-15T03:04:52.032Z,83.25
2018-07-15T03:06:02.129Z,83.39
2018-07-15T03:07:11.942Z,82.73
2018-07-15T03:08:22.013Z,82.63
2018-07-15T03:09:32.161Z,82.82
2018-07-15T03:10:41.964Z,82.73
2018-07-15T03:11:51.493Z,84.64
2018-07-15T03:13:01.585Z,85.5
2018-07-15T03:14:11.651Z,84.83
2018-07-15T03:15:21.509Z,84.06
2018-07-15T03:16:31.606Z,84.74
2018-07-15T03:17:41.397Z,84.55
2018-07-15T03:18:51.201Z,84.74
2018-07-15T03:20:01.287Z,84.92
2018-07-15T03:21:11.136Z,85.5
2018-07-15T03:22:20.939Z,86.46
2018-07-15T03:23:30.727Z,86.36
2018-07-15T03:24:40.830Z,87.41
2018-07-15T03:25:50.075Z,87.13
2018-07-15T03:27:00.199Z,87.23
2018-07-15T03:28:10.028Z,87.13
2018-07-15T03:29:20.092Z,88.56
2018-07-15T03:30:30.184Z,88.66
2018-07-15T03:31:40.282Z,88.47
2018-07-15T03:32:50.153Z,90.09
2018-07-15T03:34:00.346Z,90.09
2018-07-15T03:35:10.225Z,90.67
2018-07-15T03:36:20.040Z,90.48
2018-07-15T03:37:29.839Z,89.81
2018-07-15T03:38:39.960Z,89.52
2018-07-15T03:39:49.781Z,89.52
2018-07-15T03:40:59.841Z,90.67
2018-07-15T03:42:09.912Z,91.05
2018-07-15T03:43:19.992Z,91.72
2018-07-15T03:44:30.139Z,92.58
2018-07-15T03:45:40.189Z,92.87
2018-07-15T03:46:50.000Z,91.72
2018-07-15T03:48:00.105Z,92.58
2018-07-15T03:49:10.183Z,91.72
2018-07-15T03:50:20.053Z,93.45
2018-07-15T03:51:29.842Z,93.16
2018-07-15T03:52:39.922Z,93.45
2018-07-15T03:53:49.994Z,94.02
2018-07-15T03:54:59.787Z,94.31
2018-07-15T03:56:09.633Z,94.31
2018-07-15T03:57:19.705Z,94.5
2018-07-15T03:58:29.785Z,94.6
2018-07-15T03:59:39.318Z,92.73
2018-07-15T04:00:49.647Z,93.11
2018-07-15T04:01:59.633Z,92.82
2018-07-15T04:03:09.446Z,91.77
2018-07-15T04:04:19.231Z,91.86
2018-07-15T04:05:29.037Z,91.19
2018-07-15T04:06:38.570Z,90.72
2018-07-15T04:07:48.138Z,90.72
2018-07-15T04:08:58.454Z,90.62
2018-07-15T04:10:08.825Z,89.95
2018-07-15T04:11:18.893Z,90.23
2018-07-15T04:12:28.954Z,89.47
2018-07-15T04:13:39.075Z,89.51
2018-07-15T04:14:49.150Z,88.75
2018-07-15T04:15:58.941Z,88.75
2018-07-15T04:17:08.476Z,89.13
2018-07-15T04:18:18.562Z,88.56
2018-07-15T04:19:28.130Z,88.37
2018-07-15T04:20:38.235Z,87.79
2018-07-15T04:21:48.041Z,87.79
2018-07-15T04:22:58.105Z,87.6
2018-07-15T04:24:07.909Z,87.5
2018-07-15T04:25:17.207Z,87.41
2018-07-15T04:26:27.276Z,87.21
2018-07-15T04:27:37.071Z,87.21
2018-07-15T04:28:47.136Z,86.35
2018-07-15T04:29:57.270Z,86.54
2018-07-15T04:31:06.586Z,86.45
2018-07-15T04:32:16.383Z,86.54
2018-07-15T04:33:26.455Z,86.35
2018-07-15T04:34:36.517Z,85.72
2018-07-15T04:35:46.590Z,86.45
2018-07-15T04:36:56.724Z,86.54
2018-07-15T04:38:06.798Z,86.11
2018-07-15T04:39:16.872Z,85.58
2018-07-15T04:40:26.955Z,85.3
2018-07-15T04:41:36.765Z,85.63
2018-07-15T04:42:46.352Z,85.44
2018-07-15T04:43:56.641Z,85.34
2018-07-15T04:45:06.591Z,85.53
2018-07-15T04:46:16.661Z,84.95
2018-07-15T04:47:26.190Z,85.53
2018-07-15T04:48:36.056Z,85.53
2018-07-15T04:49:45.867Z,85.63
2018-07-15T04:50:55.950Z,85.25
2018-07-15T04:52:05.475Z,85.34
2018-07-15T04:53:14.739Z,85.25
2018-07-15T04:54:24.585Z,85.82
2018-07-15T04:55:34.119Z,85.15
2018-07-15T04:56:44.188Z,85.53
2018-07-15T04:57:54.261Z,85.63
2018-07-15T04:59:04.059Z,85.63
2018-07-15T05:00:14.193Z,85.72
2018-07-15T05:01:23.982Z,85.28
2018-07-15T05:02:34.058Z,85.58
2018-07-15T05:03:44.134Z,85.19
2018-07-15T05:04:54.196Z,85.1
2018-07-15T05:06:04.328Z,85.19
2018-07-15T05:07:14.409Z,84.71
2018-07-15T05:08:24.483Z,84.42
2018-07-15T05:09:34.285Z,84.52
2018-07-15T05:10:44.349Z,84.42
2018-07-15T05:11:54.215Z,83.75
2018-07-15T05:13:03.822Z,83.75
2018-07-15T05:14:13.636Z,84.14
2018-07-15T05:15:23.178Z,83.56
2018-07-15T05:16:32.979Z,84.42
2018-07-15T05:17:43.111Z,84.81
2018-07-15T05:18:53.201Z,84.33
2018-07-15T05:20:03.270Z,84.33
2018-07-15T05:21:13.321Z,83.75
2018-07-15T05:22:23.115Z,83.18
2018-07-15T05:23:32.951Z,83.37
2018-07-15T05:24:42.763Z,83.47
2018-07-15T05:25:52.632Z,83.27
2018-07-15T05:27:02.426Z,83.7
2018-07-15T05:28:11.966Z,83.22
2018-07-15T05:29:22.090Z,83.22
2018-07-15T05:30:32.151Z,83.41
2018-07-15T05:31:41.951Z,83.6
2018-07-15T05:32:52.020Z,83.41
2018-07-15T05:34:01.821Z,83.8
2018-07-15T05:35:11.402Z,83.03
2018-07-15T05:36:21.483Z,83.22
2018-07-15T05:37:31.037Z,83.31
2018-07-15T05:38:41.114Z,82.64
2018-07-15T05:39:50.912Z,82.93
2018-07-15T05:41:01.031Z,83.03
2018-07-15T05:42:11.111Z,82.93
2018-07-15T05:43:21.192Z,83.41
2018-07-15T05:44:31.281Z,83.03
2018-07-15T05:45:41.073Z,82.35
2018-07-15T05:46:51.214Z,82.16
2018-07-15T05:48:01.310Z,82.07
2018-07-15T05:49:10.859Z,82.26
2018-07-15T05:50:20.918Z,81.68
2018-07-15T05:51:30.726Z,81.3
2018-07-15T05:52:40.844Z,82.35
2018-07-15T05:53:50.384Z,82.16
2018-07-15T05:55:00.181Z,81.97
2018-07-15T05:56:09.983Z,82.07
2018-07-15T05:57:19.801Z,82.84
2018-07-15T05:58:29.928Z,83.03
2018-07-15T05:59:40.012Z,83.51
2018-07-15T06:00:50.088Z,83.7
2018-07-15T06:02:00.157Z,83.12
2018-07-15T06:03:09.150Z,82.35
2018-07-15T06:04:18.742Z,82.54
2018-07-15T06:05:28.814Z,83.03
2018-07-15T06:06:38.608Z,82.74
2018-07-15T06:07:48.694Z,82.16
2018-07-15T06:08:58.767Z,82.74
2018-07-15T06:10:08.631Z,82.84
2018-07-15T06:11:18.710Z,82.07
2018-07-15T06:12:28.789Z,82.16
2018-07-15T06:13:38.862Z,81.3
2018-07-15T06:14:48.926Z,80.91
2018-07-15T06:15:59.060Z,80.82
2018-07-15T06:17:09.291Z,80.76
2018-07-15T06:18:19.779Z,81.24
2018-07-15T06:19:29.589Z,80.47
2018-07-15T06:20:39.105Z,80.09
2018-07-15T06:21:49.233Z,79.99
2018-07-15T06:22:59.305Z,79.32
2018-07-15T06:24:08.841Z,79.22
2018-07-15T06:25:18.376Z,79.42
2018-07-15T06:26:28.437Z,80.38
2018-07-15T06:27:38.025Z,80.71
2018-07-15T06:28:47.553Z,80.09
2018-07-15T06:29:57.358Z,79.9
2018-07-15T06:31:07.353Z,79.8
2018-07-15T06:32:17.490Z,78.45
2018-07-15T06:33:27.082Z,78.45
2018-07-15T06:34:37.164Z,78.75
2018-07-15T06:35:47.254Z,78.75
2018-07-15T06:36:57.050Z,78.65
2018-07-15T06:38:06.917Z,79.03
2018-07-15T06:39:17.328Z,79.13
2018-07-15T06:40:27.592Z,79.13
2018-07-15T06:41:37.669Z,79.9
2018-07-15T06:42:47.744Z,79.42
2018-07-15T06:43:57.537Z,79.61
2018-07-15T06:45:07.400Z,79.71
2018-07-15T06:46:17.470Z,79.32
2018-07-15T06:47:27.528Z,79.03
2018-07-15T06:48:37.603Z,78.75
2018-07-15T06:49:47.409Z,78.45
2018-07-15T06:50:57.529Z,78.36
2018-07-15T06:52:07.347Z,78.75
2018-07-15T06:53:17.413Z,78.94
2018-07-15T06:54:27.513Z,79.71
2018-07-15T06:55:37.327Z,78.84
2018-07-15T06:56:46.897Z,79.03
2018-07-15T06:57:56.963Z,79.13
2018-07-15T06:59:06.761Z,78.84
2018-07-15T07:00:16.558Z,78.27
2018-07-15T07:01:26.369Z,79.13
2018-07-15T07:02:36.739Z,79.22
2018-07-15T07:03:46.553Z,78.75
2018-07-15T07:04:56.083Z,78.84
2018-07-15T07:06:05.944Z,78.36
2018-07-15T07:07:15.938Z,77.5
2018-07-15T07:08:26.638Z,76.54
2018-07-15T07:09:36.709Z,78.27
2018-07-15T07:10:46.245Z,77.59
2018-07-15T07:11:56.319Z,77.11
2018-07-15T07:13:06.393Z,76.54
2018-07-15T07:14:15.754Z,76.15
2018-07-15T07:15:25.720Z,76.54
2018-07-15T07:16:35.791Z,76.34
2018-07-15T07:17:45.844Z,76.34
2018-07-15T07:18:55.913Z,76.82
2018-07-15T07:20:05.768Z,75.48
2018-07-15T07:21:15.835Z,75.57
2018-07-15T07:22:25.912Z,74.55
2018-07-15T07:23:35.689Z,75.29
2018-07-15T07:24:45.767Z,74.81
2018-07-15T07:25:55.896Z,74.62
2018-07-15T07:27:05.990Z,74.46
2018-07-15T07:28:15.801Z,76
2018-07-15T07:29:25.614Z,75.52
2018-07-15T07:30:35.428Z,76
2018-07-15T07:31:44.734Z,75.71
2018-07-15T07:32:54.532Z,74.65
2018-07-15T07:34:04.089Z,75.9
2018-07-15T07:35:14.159Z,76.19
2018-07-15T07:36:24.239Z,76.19
2018-07-15T07:37:34.372Z,76.29
2018-07-15T07:38:44.592Z,75.62
2018-07-15T07:39:55.031Z,75.32
2018-07-15T07:41:05.130Z,74.37
2018-07-15T07:42:15.171Z,74.65
2018-07-15T07:43:25.297Z,74.79
2018-07-15T07:44:35.112Z,74.6
2018-07-15T07:45:44.919Z,74.6
2018-07-15T07:46:55.054Z,74.6
2018-07-15T07:48:04.871Z,75.27
2018-07-15T07:49:14.744Z,74.6
2018-07-15T07:50:24.269Z,74.98
2018-07-15T07:51:34.347Z,74.79
2018-07-15T07:52:44.420Z,73.92
2018-07-15T07:53:54.486Z,73.83
2018-07-15T07:55:04.073Z,73.73
2018-07-15T07:56:14.148Z,73.54
2018-07-15T07:57:24.247Z,73.83
2018-07-15T07:58:34.043Z,73.77
2018-07-15T07:59:44.112Z,73.67
2018-07-15T08:00:54.239Z,73.47
2018-07-15T08:02:04.480Z,73.38
2018-07-15T08:03:13.977Z,73.28
2018-07-15T08:04:24.039Z,72.71
2018-07-15T08:05:33.843Z,71.84
2018-07-15T08:06:43.979Z,71.49
2018-07-15T08:07:54.093Z,71.59
2018-07-15T08:09:03.911Z,71.3
2018-07-15T08:10:13.451Z,71.01
2018-07-15T08:11:23.569Z,70.15
2018-07-15T08:12:33.429Z,70.09
2018-07-15T08:13:43.221Z,69.99
2018-07-15T08:14:53.023Z,69.99
2018-07-15T08:16:02.841Z,69.31
2018-07-15T08:17:12.663Z,68.74
2018-07-15T08:18:22.799Z,68.68
2018-07-15T08:19:32.869Z,67.71
2018-07-15T08:20:42.946Z,67.81
2018-07-15T08:21:53.011Z,67.03
2018-07-15T08:23:03.094Z,66.59
2018-07-15T08:24:13.227Z,66.97
2018-07-15T08:25:23.042Z,65.72
2018-07-15T08:26:32.837Z,65.91
2018-07-15T08:27:42.646Z,65.63
2018-07-15T08:28:52.459Z,65.72
2018-07-15T08:30:02.605Z,64.76
2018-07-15T08:31:11.869Z,64.76
2018-07-15T08:32:21.700Z,65.05
2018-07-15T08:33:31.775Z,64.86
2018-07-15T08:34:41.586Z,64.59
2018-07-15T08:35:51.844Z,64.66
2018-07-15T08:37:01.933Z,64.79
2018-07-15T08:38:11.452Z,64.69
2018-07-15T08:39:21.260Z,64.31
2018-07-15T08:40:30.508Z,64.02
2018-07-15T08:41:40.745Z,64.31
2018-07-15T08:42:50.558Z,63.85
2018-07-15T08:44:00.372Z,63.85
2018-07-15T08:45:10.188Z,63.28
2018-07-15T08:46:20.267Z,63.67
2018-07-15T08:47:30.126Z,63.09
2018-07-15T08:48:40.201Z,62.89
2018-07-15T08:49:50.014Z,63.09
2018-07-15T08:51:00.088Z,62.6
2018-07-15T08:52:09.917Z,62.15
2018-07-15T08:53:19.882Z,62.44
2018-07-15T08:54:29.416Z,62.15
2018-07-15T08:55:39.680Z,62.34
2018-07-15T08:56:49.769Z,61.86
2018-07-15T08:57:59.846Z,62.25
2018-07-15T08:59:09.689Z,61.77
2018-07-15T09:00:19.834Z,61.09
2018-07-15T09:01:29.926Z,60.89
2018-07-15T09:02:40.006Z,60.89
2018-07-15T09:03:50.070Z,61.28
2018-07-15T09:05:00.203Z,61.31
2018-07-15T09:06:09.762Z,61.41
2018-07-15T09:07:19.305Z,60.73
2018-07-15T09:08:29.400Z,61.41
2018-07-15T09:09:39.482Z,60.93
2018-07-15T09:10:49.628Z,61.31
2018-07-15T09:11:59.725Z,60.83
2018-07-15T09:13:09.537Z,60.25
2018-07-15T09:14:19.617Z,59.38
2018-07-15T09:15:29.407Z,58.22
2018-07-15T09:16:39.605Z,58.7
2018-07-15T09:17:49.143Z,58.45
2018-07-15T09:18:58.955Z,58.15
2018-07-15T09:20:08.480Z,57.87
2018-07-15T09:21:18.278Z,57.96
2018-07-15T09:22:28.432Z,57.96
2018-07-15T09:23:38.545Z,58.06
2018-07-15T09:24:48.638Z,57.19
2018-07-15T09:25:58.169Z,56.32
2018-07-15T09:27:07.967Z,56.9
2018-07-15T09:28:17.288Z,56.99
2018-07-15T09:29:26.821Z,56.15
2018-07-15T09:30:36.911Z,55.96
2018-07-15T09:31:46.448Z,55.67
2018-07-15T09:32:56.252Z,55.77
2018-07-15T09:34:06.374Z,55.47
2018-07-15T09:35:16.518Z,55.87
2018-07-15T09:36:26.187Z,55.09
2018-07-15T09:37:36.257Z,54.99
2018-07-15T09:38:46.318Z,54.99
2018-07-15T09:39:56.170Z,55.09
2018-07-15T09:41:06.282Z,54.99
2018-07-15T09:42:16.102Z,54.93
2018-07-15T09:43:25.914Z,54.93
2018-07-15T09:44:35.169Z,54.73
2018-07-15T09:45:45.020Z,53.96
2018-07-15T09:46:54.546Z,53.96
2018-07-15T09:48:04.139Z,54.15
2018-07-15T09:49:13.948Z,54.73
2018-07-15T09:50:23.485Z,55.21
2018-07-15T09:51:33.334Z,54.83
2018-07-15T09:52:43.120Z,54.63
2018-07-15T09:53:52.940Z,54.15
2018-07-15T09:55:03.030Z,54.37
2018-07-15T09:56:12.840Z,54.85
2018-07-15T09:57:22.953Z,54.95
2018-07-15T09:58:33.017Z,54.66
2018-07-15T09:59:43.108Z,54.66
2018-07-15T10:00:53.199Z,54.21
2018-07-15T10:02:03.050Z,53.53
2018-07-15T10:03:12.356Z,53.14
2018-07-15T10:04:22.430Z,53.14
2018-07-15T10:05:32.523Z,52.95
2018-07-15T10:06:42.610Z,52.95
2018-07-15T10:07:52.404Z,52.85
2018-07-15T10:09:01.996Z,52.56
2018-07-15T10:10:11.545Z,52.36
2018-07-15T10:11:21.641Z,52.56
2018-07-15T10:12:31.465Z,51.78
2018-07-15T10:13:41.548Z,52.17
2018-07-15T10:14:51.678Z,52.95
2018-07-15T10:16:01.775Z,52.08
2018-07-15T10:17:11.310Z,51.88
2018-07-15T10:18:21.389Z,51.04
2018-07-15T10:19:30.927Z,50.92
2018-07-15T10:20:40.791Z,51.42
2018-07-15T10:21:50.880Z,51.52
2018-07-15T10:23:00.971Z,51.62
2018-07-15T10:24:11.049Z,51.9
2018-07-15T10:25:21.138Z,51.42
2018-07-15T10:26:30.773Z,51.04
2018-07-15T10:27:41.123Z,50.84
2018-07-15T10:28:50.924Z,51.23
2018-07-15T10:30:01.015Z,50.45
2018-07-15T10:31:10.541Z,50.16
2018-07-15T10:32:20.686Z,51.06
2018-07-15T10:33:30.789Z,50.96
2018-07-15T10:34:40.873Z,51.16
2018-07-15T10:35:50.676Z,51.06
2018-07-15T10:37:00.231Z,50.48
2018-07-15T10:38:10.109Z,49.7
2018-07-15T10:39:19.923Z,49.61
2018-07-15T10:40:29.733Z,49.61
2018-07-15T10:41:39.542Z,48.74
2018-07-15T10:42:49.374Z,48.44
2018-07-15T10:43:59.231Z,48.85
2018-07-15T10:45:09.063Z,48.95
2018-07-15T10:46:18.872Z,48.57
2018-07-15T10:47:28.963Z,48.27
2018-07-15T10:48:39.041Z,48.47
2018-07-15T10:49:48.893Z,47.5
2018-07-15T10:50:58.149Z,47.5
2018-07-15T10:52:07.678Z,48.37
2018-07-15T10:53:17.766Z,48.47
2018-07-15T10:54:27.299Z,47.2
2018-07-15T10:55:37.162Z,47.03
2018-07-15T10:56:47.242Z,47.33
2018-07-15T10:57:57.054Z,47.23
2018-07-15T10:59:06.851Z,47.03
2018-07-15T11:00:16.122Z,46.07
2018-07-15T11:01:26.270Z,43.76
2018-07-15T11:02:36.059Z,44.54
2018-07-15T11:03:46.137Z,43.86
2018-07-15T11:04:56.229Z,44.05
2018-07-15T11:06:06.044Z,44.54
2018-07-15T11:07:15.655Z,45.41
2018-07-15T11:08:25.740Z,44.85
2018-07-15T11:09:35.827Z,43.2
2018-07-15T11:10:45.639Z,43.59
2018-07-15T11:11:55.441Z,42.91
2018-07-15T11:13:05.567Z,42.61
2018-07-15T11:14:15.742Z,43.4
2018-07-15T11:15:25.858Z,42.13
2018-07-15T11:16:36.176Z,41.36
2018-07-15T11:17:46.496Z,41.08
2018-07-15T11:18:56.626Z,40.21
2018-07-15T11:20:06.161Z,40.99
2018-07-15T11:21:15.973Z,39.62
2018-07-15T11:22:26.152Z,39.62
2018-07-15T11:23:36.365Z,38.46
2018-07-15T11:24:45.679Z,39.06
2018-07-15T11:25:55.500Z,38.57
2018-07-15T11:27:05.730Z,39.36
2018-07-15T11:28:15.008Z,38.67
2018-07-15T11:29:24.812Z,38.6
2018-07-15T11:30:34.664Z,38.7
2018-07-15T11:31:44.496Z,36.75
2018-07-15T11:32:54.591Z,37.72
2018-07-15T11:34:04.117Z,37.06
2018-07-15T11:35:13.922Z,36.77
2018-07-15T11:36:23.784Z,36.96
2018-07-15T11:37:33.913Z,35.42
2018-07-15T11:38:44.019Z,35.44
2018-07-15T11:39:54.097Z,34.58
2018-07-15T11:41:03.906Z,33.14
2018-07-15T11:42:13.760Z,31.79
2018-07-15T11:43:23.594Z,31.51
2018-07-15T11:44:33.401Z,32.03
2018-07-15T11:45:43.226Z,30.38
2018-07-15T11:46:53.311Z,29.73
2018-07-15T11:48:03.174Z,28.28
2018-07-15T11:49:13.118Z,29.56
2018-07-15T11:50:22.952Z,29.48
2018-07-15T11:51:33.057Z,28.23
2018-07-15T11:52:42.881Z,26.98
2018-07-15T11:53:52.782Z,27.98
2018-07-15T11:55:02.599Z,26.91
2018-07-15T11:56:12.151Z,26.43
2018-07-15T11:57:21.961Z,25.56
2018-07-15T11:58:32.032Z,25.57
2018-07-15T11:59:41.628Z,24.11
2018-07-15T12:00:51.443Z,24.73
2018-07-15T12:02:01.469Z,24.63
2018-07-15T12:03:11.386Z,25.33
2018-07-15T12:04:21.199Z,23.07
2018-07-15T12:05:31.357Z,22.97
2018-07-15T12:06:41.459Z,23.58
2018-07-15T12:07:51.557Z,23.29
2018-07-15T12:09:01.639Z,22.6
2018-07-15T12:10:11.447Z,21.83
2018-07-15T12:11:21.309Z,21.73
2018-07-15T12:12:30.859Z,21.35
2018-07-15T12:13:40.677Z,20.97
2018-07-15T12:14:50.236Z,21.36
2018-07-15T12:16:00.322Z,20.68
2018-07-15T12:17:10.198Z,21.07
2018-07-15T12:18:20.284Z,21.67
2018-07-15T12:19:30.386Z,20.18
2018-07-15T12:20:40.674Z,19.89
2018-07-15T12:21:50.771Z,20.08
2018-07-15T12:23:00.384Z,19.79
2018-07-15T12:24:10.468Z,19.49
2018-07-15T12:25:20.007Z,20.57
2018-07-15T12:26:29.825Z,20.38
2018-07-15T12:27:39.912Z,20.18
2018-07-15T12:28:50.052Z,20.17
2018-07-15T12:29:59.886Z,20.57
2018-07-15T12:31:09.434Z,20.47
2018-07-15T12:32:19.546Z,21.15
2018-07-15T12:33:29.097Z,21.36
2018-07-15T12:34:39.232Z,22.25
2018-07-15T12:35:49.037Z,21.36
2018-07-15T12:36:58.867Z,21.36
2018-07-15T12:38:08.685Z,20.97
2018-07-15T12:39:18.777Z,20.78
2018-07-15T12:40:28.912Z,20.78
2018-07-15T12:41:38.989Z,20.68
2018-07-15T12:42:48.812Z,20.1
2018-07-15T12:43:58.627Z,20.1
2018-07-15T12:45:08.730Z,19.92
2018-07-15T12:46:18.852Z,19.62
2018-07-15T12:47:28.938Z,19.33
2018-07-15T12:48:39.024Z,19.82
2018-07-15T12:49:48.854Z,19.24
2018-07-15T12:50:58.669Z,18.54
2018-07-15T12:52:08.915Z,19.13
2018-07-15T12:53:19.536Z,19.04
2018-07-15T12:54:28.820Z,19.23
2018-07-15T12:55:38.630Z,18.63
2018-07-15T12:56:48.466Z,19.12
2018-07-15T12:57:58.620Z,18.93
2018-07-15T12:59:08.730Z,19.32
2018-07-15T13:00:18.549Z,18.92
2018-07-15T13:01:28.660Z,19.12
2018-07-15T13:02:38.324Z,18.54
2018-07-15T13:03:48.617Z,18.54
2018-07-15T13:04:58.431Z,18.44
2018-07-15T13:06:08.001Z,18.65
2018-07-15T13:07:17.820Z,18.45
2018-07-15T13:08:27.906Z,17.85
2018-07-15T13:09:38.069Z,17.86
2018-07-15T13:10:47.879Z,18.16
2018-07-15T13:11:57.975Z,17.86
2018-07-15T13:13:07.797Z,18.55
2018-07-15T13:14:17.974Z,17.96
2018-07-15T13:15:27.308Z,17.76
2018-07-15T13:16:37.404Z,17.97
2018-07-15T13:17:47.225Z,17.97
2018-07-15T13:18:57.036Z,18.27
2018-07-15T13:20:07.141Z,17.97
2018-07-15T13:21:17.292Z,17.49
2018-07-15T13:22:27.390Z,17.39
2018-07-15T13:23:37.478Z,16.9
2018-07-15T13:24:47.327Z,17
2018-07-15T13:25:57.152Z,16.71
2018-07-15T13:27:07.302Z,16.21
2018-07-15T13:28:17.181Z,16.61
2018-07-15T13:29:27.287Z,16.21
2018-07-15T13:30:37.528Z,16.72
2018-07-15T13:31:47.351Z,16.31
2018-07-15T13:32:56.973Z,16.42
2018-07-15T13:34:06.791Z,16.31
2018-07-15T13:35:16.605Z,16.1
2018-07-15T13:36:26.714Z,16.51
2018-07-15T13:37:36.815Z,16.4
2018-07-15T13:38:46.683Z,15.71
2018-07-15T13:39:56.784Z,16.6
2018-07-15T13:41:06.590Z,16.2
2018-07-15T13:42:16.135Z,16.5
2018-07-15T13:43:26.234Z,16.79
2018-07-15T13:44:35.571Z,16.2
2018-07-15T13:45:45.383Z,15.8
2018-07-15T13:46:55.496Z,16.6
2018-07-15T13:48:05.594Z,16.31
2018-07-15T13:49:15.680Z,16.99
2018-07-15T13:50:25.815Z,16.6
2018-07-15T13:51:35.899Z,16.31
2018-07-15T13:52:45.455Z,15.71
2018-07-15T13:53:55.545Z,15.22
2018-07-15T13:55:05.363Z,14.92
2018-07-15T13:56:15.268Z,15.22
2018-07-15T13:57:25.365Z,14.82
2018-07-15T13:58:35.186Z,15.51
2018-07-15T13:59:45.259Z,15.6
2018-07-15T14:00:55.364Z,15.51
2018-07-15T14:02:05.231Z,15.7
2018-07-15T14:03:15.036Z,15.89
2018-07-15T14:04:24.868Z,16.09
2018-07-15T14:05:34.958Z,15.48
2018-07-15T14:06:45.046Z,15.99
2018-07-15T14:07:55.186Z,16.39
2018-07-15T14:09:05.006Z,16.3
2018-07-15T14:10:14.541Z,15.7
2018-07-15T14:11:24.633Z,16.5
2018-07-15T14:12:34.191Z,16.3
2018-07-15T14:13:43.810Z,16.1
2018-07-15T14:14:53.371Z,15.71
2018-07-15T14:16:03.192Z,15.21
2018-07-15T14:17:13.020Z,15.7
2018-07-15T14:18:23.120Z,16.1
2018-07-15T14:19:32.981Z,15.51
2018-07-15T14:20:43.089Z,15.81
2018-07-15T14:21:52.922Z,15.71
2018-07-15T14:23:03.006Z,16.11
2018-07-15T14:24:12.818Z,15.22
2018-07-15T14:25:22.959Z,15.71
2018-07-15T14:26:32.503Z,15.12
2018-07-15T14:27:42.601Z,15.52
2018-07-15T14:28:52.818Z,14.72
2018-07-15T14:30:02.920Z,14.72
2018-07-15T14:31:13.064Z,14.83
2018-07-15T14:32:23.153Z,15.52
2018-07-15T14:33:32.981Z,14.04
2018-07-15T14:34:42.244Z,13.95
2018-07-15T14:35:52.080Z,13.75
2018-07-15T14:37:02.222Z,13.85
2018-07-15T14:38:12.305Z,13.26
2018-07-15T14:39:22.393Z,13.56
2018-07-15T14:40:32.494Z,13.17
2018-07-15T14:41:42.599Z,13.36
2018-07-15T14:42:52.481Z,13.66
2018-07-15T14:44:02.570Z,14.26
2018-07-15T14:45:12.109Z,13.56
2018-07-15T14:46:22.206Z,13.76
2018-07-15T14:47:32.283Z,13.56
2018-07-15T14:48:42.426Z,12.77
2018-07-15T14:49:52.252Z,13.27
2018-07-15T14:51:02.349Z,12.87
2018-07-15T14:52:12.178Z,12.58
2018-07-15T14:53:22.260Z,12.58
2018-07-15T14:54:31.859Z,12.78
2018-07-15T14:55:41.977Z,12.18
2018-07-15T14:56:51.519Z,12.38
2018-07-15T14:58:01.359Z,11.99
2018-07-15T14:59:11.452Z,11.99
2018-07-15T15:00:21.589Z,11.99
2018-07-15T15:01:31.160Z,11.88
2018-07-15T15:02:40.979Z,12.59
2018-07-15T15:03:50.523Z,11.99
2018-07-15T15:05:00.633Z,11.99
2018-07-15T15:06:10.498Z,12.09
2018-07-15T15:07:20.599Z,11.59
2018-07-15T15:08:30.427Z,11.79